createdAt,value
2023-01-27T00:01:58.179Z,82.43
2023-01-27T00:07:06.066Z,82.34
2023-01-27T00:12:39.522Z,82.27
2023-01-27T00:17:47.265Z,82.30
2023-01-27T00:23:12.484Z,82.26
2023-01-27T00:28:23.461Z,82.47
2023-01-27T00:33:35.639Z,82.40
2023-01-27T00:38:43.093Z,82.43
2023-01-27T00:43:51.820Z,82.47
2023-01-27T00:48:59.498Z,82.42
2023-01-27T00:54:07.549Z,82.42
2023-01-27T00:59:15.667Z,82.54
2023-01-27T01:04:23.103Z,82.57
2023-01-27T01:09:33.405Z,82.57
2023-01-27T01:14:41.357Z,82.52
2023-01-27T01:19:47.262Z,82.56
2023-01-27T01:24:54.939Z,82.66
2023-01-27T01:30:02.336Z,82.58
2023-01-27T01:35:11.788Z,82.64
2023-01-27T01:40:23.515Z,82.62
2023-01-27T01:45:55.413Z,82.53
2023-01-27T01:51:10.840Z,82.40
2023-01-27T01:56:22.908Z,82.53
2023-01-27T02:01:30.779Z,82.59
2023-01-27T02:06:46.564Z,82.74
2023-01-27T02:11:57.323Z,82.61
2023-01-27T02:17:06.886Z,82.47
2023-01-27T02:22:21.803Z,82.41
2023-01-27T02:27:29.266Z,82.42
2023-01-27T02:32:39.291Z,82.49
2023-01-27T02:37:48.864Z,82.49
2023-01-27T02:42:58.775Z,82.65
2023-01-27T02:48:06.560Z,82.66
2023-01-27T02:53:14.319Z,82.69
2023-01-27T02:58:22.025Z,82.62
2023-01-27T03:03:34.433Z,82.55
2023-01-27T03:08:41.994Z,82.64
2023-01-27T03:13:50.164Z,82.76
2023-01-27T03:19:00.042Z,82.81
2023-01-27T03:24:08.249Z,82.84
2023-01-27T03:29:33.799Z,82.72
2023-01-27T03:34:41.861Z,82.73
2023-01-27T03:40:13.398Z,82.70
2023-01-27T03:45:39.253Z,82.72
2023-01-27T03:50:53.275Z,82.80
2023-01-27T03:56:00.643Z,82.77
2023-01-27T04:01:10.361Z,82.77
2023-01-27T04:06:39.754Z,82.70
2023-01-27T04:12:00.142Z,82.73
2023-01-27T04:17:12.719Z,82.83
2023-01-27T04:22:20.632Z,82.76
2023-01-27T04:27:27.383Z,82.85
2023-01-27T04:32:34.580Z,82.89
2023-01-27T04:37:41.925Z,82.98
2023-01-27T04:42:50.260Z,82.91
2023-01-27T04:47:58.097Z,82.85
2023-01-27T04:53:06.158Z,82.94
2023-01-27T04:58:16.937Z,82.90
2023-01-27T05:03:25.040Z,82.92
2023-01-27T05:08:32.198Z,83.08
2023-01-27T05:13:41.065Z,83.02
2023-01-27T05:18:50.320Z,82.90
2023-01-27T05:23:57.583Z,82.90
2023-01-27T05:29:04.790Z,83.00
2023-01-27T05:34:12.957Z,82.96
2023-01-27T05:39:19.095Z,83.03
2023-01-27T05:44:26.333Z,82.84
2023-01-27T05:49:33.547Z,82.91
2023-01-27T05:54:40.846Z,83.00
2023-01-27T05:59:47.978Z,82.98
2023-01-27T06:04:55.365Z,82.91
2023-01-27T06:10:02.533Z,82.98
2023-01-27T06:15:12.204Z,82.97
2023-01-27T06:20:20.041Z,82.92
2023-01-27T06:25:27.352Z,82.96
2023-01-27T06:30:36.656Z,83.05
2023-01-27T06:35:43.893Z,83.00
2023-01-27T06:40:52.284Z,83.04
2023-01-27T06:45:59.834Z,83.10
2023-01-27T06:51:07.841Z,83.22
2023-01-27T06:56:16.537Z,83.25
2023-01-27T07:01:24.755Z,83.13
2023-01-27T07:06:32.210Z,83.01
2023-01-27T07:11:42.991Z,83.02
2023-01-27T07:16:50.346Z,83.03
2023-01-27T07:21:57.486Z,83.01
2023-01-27T07:27:04.696Z,82.96
2023-01-27T07:32:11.799Z,82.99
2023-01-27T07:37:18.950Z,82.95
2023-01-27T07:42:26.305Z,82.91
2023-01-27T07:47:33.834Z,82.88
2023-01-27T07:52:41.126Z,82.95
2023-01-27T07:57:48.318Z,83.09
2023-01-27T08:02:56.050Z,83.00
2023-01-27T08:08:04.781Z,82.92
2023-01-27T08:13:12.049Z,83.14
2023-01-27T08:18:22.224Z,83.24
2023-01-27T08:23:29.473Z,83.06
2023-01-27T08:28:38.465Z,83.09
2023-01-27T08:33:47.999Z,83.06
2023-01-27T08:38:56.818Z,83.14
2023-01-27T08:44:03.925Z,83.08
2023-01-27T08:49:11.124Z,82.94
2023-01-27T08:54:19.063Z,82.98
2023-01-27T08:59:26.256Z,82.96
2023-01-27T09:04:33.482Z,83.06
2023-01-27T09:09:40.732Z,83.04
2023-01-27T09:14:50.398Z,83.07
2023-01-27T09:19:57.612Z,83.11
2023-01-27T09:25:05.017Z,83.21
2023-01-27T09:30:15.490Z,83.10
2023-01-27T09:35:22.972Z,83.15
2023-01-27T09:40:37.589Z,83.18
2023-01-27T09:45:55.982Z,83.10
2023-01-27T09:51:11.750Z,83.02
2023-01-27T09:56:32.231Z,83.16
2023-01-27T10:01:51.150Z,83.35
2023-01-27T10:07:18.586Z,83.34
2023-01-27T10:12:45.009Z,83.32
2023-01-27T10:18:02.897Z,83.27
2023-01-27T10:23:24.884Z,83.20
2023-01-27T10:28:35.889Z,83.22
2023-01-27T10:33:53.096Z,83.23
2023-01-27T10:39:13.473Z,83.18
2023-01-27T10:44:39.165Z,83.13
2023-01-27T10:49:51.815Z,83.02
2023-01-27T10:55:04.040Z,82.95
2023-01-27T11:00:46.564Z,83.07
2023-01-27T11:05:51.918Z,83.02
2023-01-27T11:11:21.353Z,83.03
2023-01-27T11:16:32.891Z,83.13
2023-01-27T11:21:40.865Z,83.23
2023-01-27T11:26:55.703Z,83.19
2023-01-27T11:32:12.578Z,83.12
2023-01-27T11:37:23.545Z,83.13
2023-01-27T11:42:34.786Z,83.19
2023-01-27T11:47:43.915Z,83.32
2023-01-27T11:52:53.997Z,83.30
2023-01-27T11:58:16.014Z,83.29
2023-01-27T12:03:28.155Z,83.32
2023-01-27T12:08:42.045Z,83.13
2023-01-27T12:13:53.905Z,83.06
2023-01-27T12:19:05.648Z,83.24
2023-01-27T12:24:25.758Z,83.24
2023-01-27T12:29:40.043Z,83.26
2023-01-27T12:34:50.472Z,83.18
2023-01-27T12:40:02.614Z,83.26
2023-01-27T12:45:29.531Z,83.19
2023-01-27T12:50:38.465Z,83.27
2023-01-27T12:55:48.168Z,83.17
2023-01-27T13:00:55.705Z,83.22
2023-01-27T13:06:03.664Z,83.26
2023-01-27T13:11:11.401Z,83.29
2023-01-27T13:16:25.075Z,83.21
2023-01-27T13:21:37.570Z,83.23
2023-01-27T13:26:45.484Z,83.16
2023-01-27T13:31:58.325Z,83.08
2023-01-27T13:37:14.714Z,83.03
2023-01-27T13:42:27.374Z,82.97
2023-01-27T13:47:43.113Z,82.98
2023-01-27T13:52:54.583Z,83.01
2023-01-27T13:58:11.597Z,82.89
2023-01-27T14:03:34.924Z,82.97
2023-01-27T14:09:11.123Z,82.97
2023-01-27T14:14:27.410Z,82.76
2023-01-27T14:19:54.716Z,82.74
2023-01-27T14:25:20.305Z,82.60
2023-01-27T14:30:32.872Z,82.45
2023-01-27T14:35:46.371Z,82.47
2023-01-27T14:41:08.288Z,82.51
2023-01-27T14:46:25.330Z,82.59
2023-01-27T14:51:40.795Z,82.51
2023-01-27T14:56:55.954Z,82.57
2023-01-27T15:02:11.487Z,82.39
2023-01-27T15:07:25.603Z,82.31
2023-01-27T15:13:08.450Z,82.27
2023-01-27T15:18:37.976Z,82.23
2023-01-27T15:24:10.458Z,81.94
2023-01-27T15:29:25.207Z,81.96
2023-01-27T15:34:32.433Z,81.87
2023-01-27T15:40:04.373Z,81.90
2023-01-27T15:45:30.068Z,82.07
2023-01-27T15:50:40.065Z,81.88
2023-01-27T15:55:54.668Z,81.82
2023-01-27T16:01:04.598Z,81.77
2023-01-27T16:06:16.917Z,81.62
2023-01-27T16:11:42.411Z,81.65
2023-01-27T16:17:14.617Z,81.61
2023-01-27T16:22:23.959Z,81.68
2023-01-27T16:27:43.060Z,81.67
2023-01-27T16:33:06.395Z,81.58
2023-01-27T16:38:25.800Z,81.53
2023-01-27T16:43:42.177Z,81.55
2023-01-27T16:48:50.709Z,81.62
2023-01-27T16:53:59.997Z,81.57
2023-01-27T16:59:10.273Z,81.58
2023-01-27T17:04:23.632Z,81.53
2023-01-27T17:09:32.946Z,81.53
2023-01-27T17:14:47.411Z,81.42
2023-01-27T17:20:00.170Z,81.32
2023-01-27T17:25:15.695Z,81.31
2023-01-27T17:30:26.698Z,81.32
2023-01-27T17:35:36.869Z,81.26
2023-01-27T17:40:46.530Z,81.25
2023-01-27T17:46:09.547Z,81.19
2023-01-27T17:51:25.475Z,81.11
2023-01-27T17:56:35.279Z,81.00
2023-01-27T18:01:43.190Z,80.96
2023-01-27T18:06:50.303Z,81.05
2023-01-27T18:12:01.403Z,80.90
2023-01-27T18:17:23.119Z,80.97
2023-01-27T18:22:30.673Z,81.07
2023-01-27T18:27:39.141Z,80.94
2023-01-27T18:32:48.814Z,81.04
2023-01-27T18:37:59.716Z,80.88
2023-01-27T18:43:07.482Z,80.81
2023-01-27T18:48:17.617Z,80.92
2023-01-27T18:53:24.898Z,80.83
2023-01-27T18:58:32.133Z,80.83
2023-01-27T19:03:39.397Z,80.66
2023-01-27T19:08:49.205Z,80.52
2023-01-27T19:13:56.323Z,80.50
2023-01-27T19:19:04.534Z,80.67
2023-01-27T19:24:15.956Z,80.57
2023-01-27T19:29:23.104Z,80.58
2023-01-27T19:34:30.511Z,80.47
2023-01-27T19:39:37.678Z,80.30
2023-01-27T19:44:45.328Z,80.36
2023-01-27T19:49:52.511Z,80.50
2023-01-27T19:54:59.711Z,80.41
2023-01-27T20:00:08.349Z,80.35
2023-01-27T20:05:20.182Z,80.43
2023-01-27T20:10:31.293Z,80.42
2023-01-27T20:15:40.150Z,80.32
2023-01-27T20:20:47.863Z,80.46
2023-01-27T20:25:57.736Z,80.42
2023-01-27T20:31:04.896Z,80.39
2023-01-27T20:36:16.216Z,80.35
2023-01-27T20:41:25.670Z,80.34
2023-01-27T20:46:37.685Z,80.33
2023-01-27T20:51:45.311Z,80.15
2023-01-27T20:56:53.340Z,80.08
2023-01-27T21:02:06.882Z,80.08
2023-01-27T21:07:18.292Z,80.12
2023-01-27T21:12:25.912Z,80.06
2023-01-27T21:17:33.907Z,80.03
2023-01-27T21:22:41.424Z,79.96
2023-01-27T21:27:50.297Z,80.02
2023-01-27T21:33:07.776Z,80.11
2023-01-27T21:38:16.979Z,80.11
2023-01-27T21:43:42.908Z,80.08
2023-01-27T21:48:53.039Z,80.13
2023-01-27T21:54:01.527Z,80.06
2023-01-27T21:59:14.169Z,80.14
2023-01-27T22:04:22.577Z,80.19
2023-01-27T22:09:30.594Z,80.05
2023-01-27T22:14:37.350Z,79.93
2023-01-27T22:19:46.068Z,80.02
2023-01-27T22:24:54.047Z,80.07
2023-01-27T22:30:02.487Z,79.91
2023-01-27T22:35:14.562Z,80.01
2023-01-27T22:40:25.838Z,80.25
2023-01-27T22:45:33.864Z,80.14
2023-01-27T22:50:42.307Z,80.12
2023-01-27T22:55:57.153Z,80.05
2023-01-27T23:01:08.688Z,79.92
2023-01-27T23:06:17.362Z,79.97
2023-01-27T23:11:24.695Z,80.01
2023-01-27T23:16:33.148Z,79.97
2023-01-27T23:21:40.315Z,80.06
2023-01-27T23:26:47.422Z,80.15
2023-01-27T23:31:54.994Z,80.20
2023-01-27T23:37:02.338Z,80.19
2023-01-27T23:42:09.970Z,80.02
2023-01-27T23:47:17.957Z,80.09
2023-01-27T23:52:25.650Z,80.13
2023-01-27T23:57:32.854Z,80.06
